TALO2: Illinois River, Tahlequah, OK

                                SHEF ID:       TALO2     Illinois River near Tahlequah, O
STATION TYPE:
Regulating: Stage = 11.00, Flow = 10168

PRECIP STAGE STAGE(2) RIV-FLOW BAT-LOAD
in ft ft cfs volt
Ccp-Rev Ccp-Rev Ccp-Rev Ccp-Rev Ccp-Rev
(America/Chicago)
04/23 00:00 ---- 6.20 ---- 1175 12.33
04/23 01:00 ---- 6.20 ---- 1175 12.25
04/23 02:00 ---- 6.19 ---- 1165 12.25
04/23 03:00 ---- 6.19 ---- 1165 12.09
04/23 04:00 ---- 6.17 ---- 1146 12.09
04/23 05:00 ---- 6.18 ---- 1156 12.01
04/23 06:00 ---- 6.16 ---- 1136 12.09
04/23 07:00 ---- 6.16 ---- 1136 12.01
04/23 08:00 ---- 6.13 ---- 1107 11.93
04/23 09:00 ---- 6.14 ---- 1116 12.09
04/23 10:00 ---- 6.14 ---- 1116 12.65
04/23 11:00 ---- 6.12 ---- 1097 12.65
04/23 12:00 ---- 6.13 ---- 1107 12.73
04/23 13:00 ---- 6.11 ---- 1087 12.89
04/23 14:00 ---- 6.09 ---- 1069 12.97
04/23 15:00 ---- 6.10 ---- 1078 12.89
04/23 16:00 ---- 6.08 ---- 1059 12.97
04/23 17:00 ---- 6.07 ---- 1050 12.73
04/23 18:00 ---- 6.08 ---- 1059 12.57
04/23 19:00 ---- 6.08 ---- 1059 12.57
04/23 20:00 ---- 6.07 ---- 1050 12.41
04/23 21:00 ---- 6.06 ---- 1041 12.17
04/23 22:00 ---- 6.06 ---- 1041 12.17
04/23 23:00 ---- ---- ---- ---- ----
Data processed at Fri 24Apr2026 04:33 GMT

NOTICE: If you are parsing this page

Please convert to using our Data API. Starting early 2026 we will be migrating to: https://water.usace.army.mil with modern pages rendered in JavaScript. When this migration completes you will no longer be able to scrape this page! CWMSDataAPI (CDA)

Timeseries IDs (TSIDs)

TSIDs used from left to right in the data table
TAHL.Precip-Inc.Total.1Hour.0.Ccp-Rev
TAHL.Stage.Inst.1Hour.0.Ccp-Rev
TAHL.Stage-Alt.Inst.1Hour.0.Ccp-Rev
TAHL.Flow.Inst.1Hour.0.Ccp-Rev
TAHL.Volt-Battery Load.Inst.1Hour.0.Ccp-Rev

                            

All information presented herein is the property of the government of the United States of America and may be revised or deleted at any time without prior notice. Dissemination of this information without the expressed written consent of the Public Affairs Office, Tulsa District U.S. Army Corps of Engineers is strictly prohibited. These data are gathered electronically and, as presented, have NOT undergone any form of quality control. These data are NOT guaranteed to be valid or correct.